Blanca, CO

6:02 PM MDT on March 26, 2015 (GMT -0600)
Sangre De Cristo Ranches | | Change Station
CLOSE
Current Station
Personal Weather Station
Location: Fort Garland, CO
Elevation: 8169 ft
Nearby Weather Stations

Elev 8169 ft 37.40 °N, 105.40 °W | Updated 8 minutes ago

Clear
Clear
53.2 °F
Feels Like 53.2 °F
N
0.0
Wind Variable Wind from WSW

Today
High -- | Low -- °F
--% Chance of Precip.
Yesterday
High -- | Low -- °F
Precip. -- in
6:56 AM 7:19 PM
Waxing Crescent, 47% visible
Pressure 30.14 in
Visibility 10.0 miles
Clouds Clear
Dew Point 18 °F
Humidity 25%
Rainfall 0.00 in
Snow Depth Not available.
UV 1 out of 12
Pollen 10.00 out of 12
Air Quality Not available.
Flu Activity Not available.
METAR KALS 262352Z AUTO 32010G16KT 10SM CLR 14/M12 A3019 RMK AO2 SLP207 T01441117 10156 20067 55009

More Conditions Fewer Conditions

Pressure 30.14 in
Visibility 10.0 miles
Clouds Clear
Dew Point 18 °F
Humidity 25%
Rainfall 0.00 in
Snow Depth Not available.
UV 1 out of 12
Pollen 10.00 out of 12
Air Quality Not available.
Flu Activity Not available.
METAR KALS 262352Z AUTO 32010G16KT 10SM CLR 14/M12 A3019 RMK AO2 SLP207 T01441117 10156 20067 55009

More Conditions Fewer Conditions

10-Day Weather Forecast

Almanac

Astronomy

Mar. 26, 2015 Rise Set
Actual Time
Civil Twilight
Nautical Twilight
Astronomical Twilight
Moon
Length of Visible Light
Length of Day
Tomorrow will be .
, % of the Moon is Illuminated

Today's Extremes

State Highs State Lows

Community

WunderPhotos

Upload Photos

1,808,651 photos uploaded!

WunderBlogs® & News

Nearby

Air Quality

  Air Quality AQ Index Pollutant
Not available.

Snow Depth

Station Depth Elevation

Earthquake Activity

City Distance Mag. Time & Date
Minimum magnitude displayed is 2.5.

Coastal Water Temperatures

Place Temperature

Stations

Nearby Weather Stations

Station Location Temp. Windchill Dew Point Humidity Wind Precip. Elev Updated Type